createdAt,value
2024-05-09T00:00:47.906Z,100.00
2024-05-09T00:03:35.882Z,100.00
2024-05-09T00:06:04.544Z,100.00
2024-05-09T00:08:32.695Z,100.00
2024-05-09T00:11:00.839Z,100.00
2024-05-09T00:13:28.945Z,100.00
2024-05-09T00:15:57.028Z,100.00
2024-05-09T00:18:25.121Z,100.00
2024-05-09T00:20:53.255Z,100.00
2024-05-09T00:23:21.227Z,100.00
2024-05-09T00:25:49.262Z,100.00
2024-05-09T00:28:17.269Z,100.00
2024-05-09T00:30:45.204Z,100.00
2024-05-09T00:33:13.318Z,100.00
2024-05-09T00:35:41.782Z,100.00
2024-05-09T00:38:10.619Z,100.00
2024-05-09T00:40:42.001Z,100.00
2024-05-09T00:43:13.923Z,100.00
2024-05-09T00:45:43.784Z,100.00
2024-05-09T00:48:17.306Z,100.00
2024-05-09T00:50:48.151Z,100.00
2024-05-09T00:53:18.520Z,100.00
2024-05-09T00:55:47.634Z,100.00
2024-05-09T00:58:20.957Z,100.00
2024-05-09T01:00:50.385Z,100.00
2024-05-09T01:03:19.492Z,100.00
2024-05-09T01:05:48.035Z,100.00
2024-05-09T01:08:16.316Z,100.00
2024-05-09T01:10:46.107Z,100.00
2024-05-09T01:13:16.035Z,100.00
2024-05-09T01:15:44.406Z,100.00
2024-05-09T01:18:13.804Z,100.00
2024-05-09T01:20:44.520Z,100.00
2024-05-09T01:23:16.379Z,100.00
2024-05-09T01:25:46.120Z,100.00
2024-05-09T01:28:16.101Z,100.00
2024-05-09T01:30:44.338Z,100.00
2024-05-09T01:33:13.029Z,100.00
2024-05-09T01:35:42.767Z,100.00
2024-05-09T01:38:13.218Z,100.00
2024-05-09T01:40:41.571Z,100.00
2024-05-09T01:43:10.863Z,100.00
2024-05-09T01:45:41.180Z,100.00
2024-05-09T01:48:10.984Z,100.00
2024-05-09T01:50:42.233Z,100.00
2024-05-09T01:53:13.390Z,100.00
2024-05-09T01:55:42.195Z,100.00
2024-05-09T01:58:10.365Z,100.00
2024-05-09T02:00:42.143Z,100.00
2024-05-09T02:03:16.031Z,100.00
2024-05-09T02:05:49.577Z,100.00
2024-05-09T02:08:22.133Z,100.00
2024-05-09T02:10:50.895Z,100.00
2024-05-09T02:13:19.252Z,100.00
2024-05-09T02:15:47.316Z,100.00
2024-05-09T02:18:15.540Z,100.00
2024-05-09T02:20:44.240Z,100.00
2024-05-09T02:23:13.690Z,100.00
2024-05-09T02:25:42.056Z,100.00
2024-05-09T02:28:10.025Z,100.00
2024-05-09T02:30:41.087Z,100.00
2024-05-09T02:33:12.466Z,100.00
2024-05-09T02:35:44.008Z,100.00
2024-05-09T02:38:13.517Z,100.00
2024-05-09T02:40:41.891Z,100.00
2024-05-09T02:43:12.682Z,100.00
2024-05-09T02:45:41.727Z,100.00
2024-05-09T02:48:10.936Z,100.00
2024-05-09T02:50:44.045Z,100.00
2024-05-09T02:53:13.300Z,100.00
2024-05-09T02:55:42.299Z,100.00
2024-05-09T02:58:12.106Z,100.00
2024-05-09T03:00:42.327Z,100.00
2024-05-09T03:03:14.106Z,100.00
2024-05-09T03:05:46.507Z,100.00
2024-05-09T03:08:14.974Z,100.00
2024-05-09T03:10:43.216Z,100.00
2024-05-09T03:13:14.911Z,100.00
2024-05-09T03:15:44.924Z,100.00
2024-05-09T03:18:15.056Z,100.00
2024-05-09T03:20:44.559Z,100.00
2024-05-09T03:23:12.896Z,100.00
2024-05-09T03:25:41.113Z,100.00
2024-05-09T03:28:09.116Z,100.00
2024-05-09T03:30:41.850Z,100.00
2024-05-09T03:33:15.189Z,100.00
2024-05-09T03:35:44.216Z,100.00
2024-05-09T03:38:12.570Z,100.00
2024-05-09T03:40:49.054Z,100.00
2024-05-09T03:43:19.507Z,100.00
2024-05-09T03:45:50.409Z,100.00
2024-05-09T03:48:18.724Z,100.00
2024-05-09T03:50:48.145Z,100.00
2024-05-09T03:53:16.408Z,100.00
2024-05-09T03:55:48.332Z,100.00
2024-05-09T03:58:16.300Z,100.00
2024-05-09T04:00:44.318Z,100.00
2024-05-09T04:03:13.441Z,100.00
2024-05-09T04:05:44.574Z,100.00
2024-05-09T04:08:14.868Z,100.00
2024-05-09T04:10:43.491Z,100.00
2024-05-09T04:13:11.493Z,100.00
2024-05-09T04:15:39.854Z,100.00
2024-05-09T04:18:08.037Z,100.00
2024-05-09T04:20:39.582Z,100.00
2024-05-09T04:23:14.572Z,100.00
2024-05-09T04:25:44.742Z,100.00
2024-05-09T04:28:13.963Z,100.00
2024-05-09T04:30:42.694Z,100.00
2024-05-09T04:33:13.455Z,100.00
2024-05-09T04:35:43.786Z,100.00
2024-05-09T04:38:13.779Z,100.00
2024-05-09T04:40:42.697Z,100.00
2024-05-09T04:43:16.019Z,100.00
2024-05-09T04:45:44.536Z,100.00
2024-05-09T04:48:12.936Z,100.00
2024-05-09T04:50:41.594Z,100.00
2024-05-09T04:53:10.903Z,100.00
2024-05-09T04:55:40.418Z,100.00
2024-05-09T04:58:09.504Z,100.00
2024-05-09T05:00:41.436Z,100.00
2024-05-09T05:03:13.910Z,100.00
2024-05-09T05:05:46.528Z,100.00
2024-05-09T05:08:16.897Z,100.00
2024-05-09T05:10:46.970Z,100.00
2024-05-09T05:13:17.617Z,100.00
2024-05-09T05:15:47.530Z,100.00
2024-05-09T05:18:16.251Z,100.00
2024-05-09T05:20:45.061Z,100.00
2024-05-09T05:23:15.716Z,100.00
2024-05-09T05:25:44.824Z,100.00
2024-05-09T05:28:13.511Z,100.00
2024-05-09T05:30:41.987Z,100.00
2024-05-09T05:33:13.299Z,100.00
2024-05-09T05:35:42.291Z,100.00
2024-05-09T05:38:10.966Z,100.00
2024-05-09T05:40:40.525Z,100.00
2024-05-09T05:43:17.436Z,100.00
2024-05-09T05:45:46.789Z,100.00
2024-05-09T05:48:18.195Z,100.00
2024-05-09T05:50:46.837Z,100.00
2024-05-09T05:53:16.377Z,100.00
2024-05-09T05:55:44.688Z,100.00
2024-05-09T05:58:14.324Z,100.00
2024-05-09T06:00:43.134Z,100.00
2024-05-09T06:03:12.678Z,100.00
2024-05-09T06:05:45.892Z,100.00
2024-05-09T06:08:14.511Z,100.00
2024-05-09T06:10:42.989Z,100.00
2024-05-09T06:13:12.790Z,100.00
2024-05-09T06:15:41.596Z,100.00
2024-05-09T06:18:13.148Z,100.00
2024-05-09T06:20:43.733Z,100.00
2024-05-09T06:23:14.280Z,100.00
2024-05-09T06:25:44.052Z,100.00
2024-05-09T06:28:12.842Z,100.00
2024-05-09T06:30:42.678Z,100.00
2024-05-09T06:33:13.837Z,100.00
2024-05-09T06:35:44.660Z,100.00
2024-05-09T06:38:13.256Z,100.00
2024-05-09T06:40:43.834Z,100.00
2024-05-09T06:43:15.019Z,100.00
2024-05-09T06:45:46.089Z,100.00
2024-05-09T06:48:14.628Z,100.00
2024-05-09T06:50:43.000Z,100.00
2024-05-09T06:53:14.353Z,100.00
2024-05-09T06:55:43.014Z,100.00
2024-05-09T06:58:11.015Z,100.00
2024-05-09T07:00:41.141Z,100.00
2024-05-09T07:03:13.179Z,100.00
2024-05-09T07:05:44.422Z,100.00
2024-05-09T07:08:14.621Z,100.00
2024-05-09T07:10:42.877Z,100.00
2024-05-09T07:13:13.078Z,100.00
2024-05-09T07:15:42.071Z,100.00
2024-05-09T07:18:17.688Z,100.00
2024-05-09T07:20:48.841Z,100.00
2024-05-09T07:23:18.331Z,100.00
2024-05-09T07:25:46.881Z,100.00
2024-05-09T07:28:16.850Z,100.00
2024-05-09T07:30:45.791Z,100.00
2024-05-09T07:33:17.472Z,100.00
2024-05-09T07:35:46.013Z,100.00
2024-05-09T07:38:14.142Z,100.00
2024-05-09T07:40:42.988Z,100.00
2024-05-09T07:43:14.773Z,100.00
2024-05-09T07:45:51.399Z,100.00
2024-05-09T07:52:45.962Z,100.00
2024-05-09T07:53:50.008Z,100.00
2024-05-09T07:56:22.770Z,100.00
2024-05-09T07:58:54.197Z,100.00
2024-05-09T08:01:25.480Z,100.00
2024-05-09T08:03:54.541Z,100.00
2024-05-09T08:06:52.153Z,100.00
2024-05-09T08:09:21.417Z,100.00
2024-05-09T08:11:52.596Z,100.00
2024-05-09T08:14:20.712Z,100.00
2024-05-09T08:16:50.859Z,100.00
2024-05-09T08:19:18.906Z,100.00
2024-05-09T08:21:47.246Z,100.00
2024-05-09T08:24:15.228Z,100.00
2024-05-09T08:26:43.139Z,100.00
2024-05-09T08:29:11.187Z,100.00
2024-05-09T08:31:39.408Z,100.00
2024-05-09T08:34:07.456Z,100.00
2024-05-09T08:36:35.577Z,100.00
2024-05-09T08:39:03.675Z,100.00
2024-05-09T08:41:34.104Z,100.00
2024-05-09T08:44:03.197Z,100.00
2024-05-09T08:46:33.515Z,100.00
2024-05-09T08:49:03.346Z,100.00
2024-05-09T08:51:31.957Z,100.00
2024-05-09T08:53:59.892Z,95.20
2024-05-09T08:56:28.278Z,94.42
2024-05-09T08:59:00.898Z,92.50
2024-05-09T09:01:31.800Z,95.76
2024-05-09T09:04:05.245Z,95.52
2024-05-09T09:06:35.550Z,91.63
2024-05-09T09:09:03.715Z,94.17
2024-05-09T09:11:31.610Z,92.75
2024-05-09T09:13:59.612Z,88.59
2024-05-09T09:16:37.139Z,86.15
2024-05-09T09:19:05.352Z,80.25
2024-05-09T09:21:33.791Z,79.12
2024-05-09T09:24:01.844Z,83.17
2024-05-09T09:26:32.493Z,87.17
2024-05-09T09:29:04.089Z,88.22
2024-05-09T09:31:32.210Z,78.76
2024-05-09T09:34:08.198Z,77.80
2024-05-09T09:36:39.180Z,74.38
2024-05-09T09:39:12.604Z,73.26
2024-05-09T09:41:46.916Z,76.52
2024-05-09T09:44:16.976Z,77.03
2024-05-09T09:46:46.094Z,78.08
2024-05-09T09:49:19.318Z,81.50
2024-05-09T09:51:49.421Z,78.55
2024-05-09T09:54:21.727Z,77.14
2024-05-09T09:56:51.550Z,78.61
2024-05-09T09:59:22.993Z,75.52
2024-05-09T10:01:51.386Z,68.75
2024-05-09T10:04:19.768Z,66.49
2024-05-09T10:06:55.003Z,67.03
2024-05-09T10:09:28.991Z,69.94
2024-05-09T10:12:00.363Z,72.44
2024-05-09T10:14:40.507Z,72.46
2024-05-09T10:17:08.571Z,68.00
2024-05-09T10:19:36.685Z,66.88
2024-05-09T10:22:10.933Z,67.33
2024-05-09T10:25:06.630Z,67.70
2024-05-09T10:27:34.739Z,64.75
2024-05-09T10:30:09.093Z,65.56
2024-05-09T10:32:44.875Z,66.19
2024-05-09T10:35:15.120Z,65.89
2024-05-09T10:37:43.602Z,62.58
2024-05-09T10:40:23.361Z,66.26
2024-05-09T10:43:05.778Z,68.39
2024-05-09T10:45:35.667Z,70.30
2024-05-09T10:48:07.822Z,65.88
2024-05-09T10:50:39.077Z,65.63
2024-05-09T10:53:07.202Z,64.92
2024-05-09T10:56:03.207Z,64.18
2024-05-09T10:58:31.146Z,63.18
2024-05-09T11:01:00.638Z,65.12
2024-05-09T11:03:30.289Z,65.74
2024-05-09T11:05:58.874Z,68.45
2024-05-09T11:08:27.638Z,70.31
2024-05-09T11:10:59.618Z,67.04
2024-05-09T11:13:34.157Z,65.79
2024-05-09T11:16:03.459Z,64.82
2024-05-09T11:18:36.473Z,64.91
2024-05-09T11:21:13.601Z,66.94
2024-05-09T11:23:42.124Z,64.82
2024-05-09T11:26:11.225Z,60.78
2024-05-09T11:28:44.196Z,58.79
2024-05-09T11:31:12.538Z,64.94
2024-05-09T11:33:45.508Z,63.55
2024-05-09T11:36:14.960Z,59.34
2024-05-09T11:38:43.195Z,59.10
2024-05-09T11:41:18.434Z,56.21
2024-05-09T11:43:46.774Z,56.04
2024-05-09T11:46:14.907Z,61.25
2024-05-09T11:48:43.182Z,62.27
2024-05-09T11:51:11.311Z,58.51
2024-05-09T11:53:39.372Z,59.90
2024-05-09T11:56:07.459Z,59.60
2024-05-09T11:58:38.120Z,61.13
2024-05-09T12:01:06.125Z,60.12
2024-05-09T12:03:35.166Z,61.37
2024-05-09T12:06:04.091Z,61.45
2024-05-09T12:08:32.312Z,59.50
2024-05-09T12:11:00.483Z,56.36
2024-05-09T12:13:29.127Z,57.86
2024-05-09T12:15:57.106Z,58.54
2024-05-09T12:18:25.282Z,57.44
2024-05-09T12:20:53.376Z,56.59
2024-05-09T12:23:21.366Z,53.64
2024-05-09T12:25:49.815Z,54.71
2024-05-09T12:28:18.262Z,55.73
2024-05-09T12:30:46.701Z,55.64
2024-05-09T12:33:14.875Z,56.10
2024-05-09T12:35:45.394Z,52.91
2024-05-09T12:38:15.558Z,53.62
2024-05-09T12:40:43.763Z,58.77
2024-05-09T12:43:12.233Z,56.80
2024-05-09T12:45:40.444Z,52.96
2024-05-09T12:48:12.129Z,55.13
2024-05-09T12:50:41.786Z,52.68
2024-05-09T12:53:10.189Z,54.09
2024-05-09T12:55:44.910Z,57.14
2024-05-09T12:58:22.104Z,56.41
2024-05-09T13:00:53.495Z,52.64
2024-05-09T13:03:22.278Z,53.90
2024-05-09T13:05:51.498Z,54.12
2024-05-09T13:08:20.850Z,53.97
2024-05-09T13:10:49.976Z,52.87
2024-05-09T13:13:18.170Z,52.93
2024-05-09T13:15:46.335Z,53.58
2024-05-09T13:18:14.416Z,53.88
2024-05-09T13:20:42.355Z,56.88
2024-05-09T13:23:10.275Z,56.99
2024-05-09T13:25:38.435Z,52.42
2024-05-09T13:28:07.662Z,53.68
2024-05-09T13:30:40.205Z,54.89
2024-05-09T13:33:12.155Z,53.31
2024-05-09T13:35:46.878Z,54.12
2024-05-09T13:38:19.347Z,52.07
2024-05-09T13:40:48.317Z,51.75
2024-05-09T13:43:17.471Z,51.28
2024-05-09T13:45:45.947Z,50.96
2024-05-09T13:48:14.267Z,53.18
2024-05-09T13:50:42.399Z,49.78
2024-05-09T13:53:10.379Z,48.57
2024-05-09T13:55:38.897Z,51.08
2024-05-09T13:58:07.743Z,51.49
2024-05-09T14:00:49.971Z,53.09
2024-05-09T14:03:30.398Z,51.23
2024-05-09T14:06:01.904Z,51.82
2024-05-09T14:08:32.059Z,50.31
2024-05-09T14:11:00.081Z,48.97
2024-05-09T14:13:28.289Z,51.03
2024-05-09T14:15:56.525Z,51.03
2024-05-09T14:18:25.915Z,52.36
2024-05-09T14:20:54.435Z,52.71
2024-05-09T14:23:22.600Z,54.76
2024-05-09T14:25:53.023Z,55.02
2024-05-09T14:28:24.670Z,57.73
2024-05-09T14:30:53.238Z,55.59
2024-05-09T14:33:26.177Z,53.50
2024-05-09T14:35:54.523Z,52.95
2024-05-09T14:38:27.334Z,52.19
2024-05-09T14:40:55.929Z,54.85
2024-05-09T14:43:24.391Z,54.12
2024-05-09T14:45:53.378Z,53.38
2024-05-09T14:48:21.856Z,55.48
2024-05-09T14:50:50.062Z,53.25
2024-05-09T14:53:17.910Z,54.06
2024-05-09T14:55:46.256Z,53.54
2024-05-09T14:58:15.249Z,54.58
2024-05-09T15:00:50.190Z,54.86
2024-05-09T15:03:21.015Z,56.18
2024-05-09T15:05:51.215Z,52.45
2024-05-09T15:08:22.772Z,52.63
2024-05-09T15:10:51.027Z,52.63
2024-05-09T15:13:20.814Z,52.81
2024-05-09T15:15:49.496Z,51.29
2024-05-09T15:18:18.140Z,51.05
2024-05-09T15:20:47.058Z,51.05
2024-05-09T15:23:15.264Z,51.45
2024-05-09T15:25:45.827Z,52.26
2024-05-09T15:28:13.870Z,52.93
2024-05-09T15:30:45.520Z,52.99
2024-05-09T15:33:15.181Z,53.03
2024-05-09T15:35:44.796Z,53.41
2024-05-09T15:38:14.121Z,53.15
2024-05-09T15:40:42.070Z,54.42
2024-05-09T15:43:11.459Z,54.53
2024-05-09T15:45:41.653Z,55.36
2024-05-09T15:48:10.971Z,58.38
2024-05-09T15:50:41.818Z,60.84
2024-05-09T15:53:13.214Z,61.41
2024-05-09T15:55:42.839Z,60.02
2024-05-09T15:58:13.282Z,59.88
2024-05-09T16:00:44.208Z,59.72
2024-05-09T16:03:14.876Z,61.48
2024-05-09T16:05:45.706Z,63.48
2024-05-09T16:08:15.603Z,65.45
2024-05-09T16:10:45.880Z,67.14
2024-05-09T16:13:16.491Z,69.79
2024-05-09T16:15:45.693Z,71.29
2024-05-09T16:18:14.041Z,75.59
2024-05-09T16:20:43.973Z,78.71
2024-05-09T16:23:13.614Z,81.22
2024-05-09T16:25:45.336Z,81.85
2024-05-09T16:28:13.772Z,79.68
2024-05-09T16:30:42.103Z,76.83
2024-05-09T16:33:11.671Z,80.03
2024-05-09T16:35:40.400Z,79.83
2024-05-09T16:38:08.664Z,74.98
2024-05-09T16:40:40.132Z,71.24
2024-05-09T16:43:12.328Z,70.66
2024-05-09T16:45:45.125Z,70.40
2024-05-09T16:48:14.032Z,68.77
2024-05-09T16:50:42.923Z,67.32
2024-05-09T16:53:11.029Z,66.73
2024-05-09T16:55:39.128Z,66.92
2024-05-09T16:58:12.077Z,67.10
2024-05-09T17:00:43.247Z,68.70
2024-05-09T17:03:14.865Z,69.20
2024-05-09T17:05:46.585Z,70.26
2024-05-09T17:08:18.277Z,71.82
2024-05-09T17:10:48.962Z,74.10
2024-05-09T17:13:19.194Z,75.40
2024-05-09T17:15:49.357Z,78.54
2024-05-09T17:18:17.791Z,80.70
2024-05-09T17:20:46.660Z,81.38
2024-05-09T17:23:14.900Z,82.73
2024-05-09T17:25:43.168Z,84.36
2024-05-09T17:28:12.143Z,86.63
2024-05-09T17:30:42.002Z,89.83
2024-05-09T17:33:12.469Z,88.93
2024-05-09T17:35:41.753Z,88.44
2024-05-09T17:38:09.821Z,90.90
2024-05-09T17:40:38.997Z,93.77
2024-05-09T17:43:10.374Z,95.20
2024-05-09T17:45:40.897Z,98.68
2024-05-09T17:48:11.670Z,100.00
2024-05-09T17:50:41.938Z,100.00
2024-05-09T17:53:10.988Z,100.00
2024-05-09T17:55:40.237Z,100.00
2024-05-09T17:58:09.537Z,100.00
2024-05-09T18:00:40.758Z,100.00
2024-05-09T18:03:12.308Z,100.00
2024-05-09T18:05:44.121Z,100.00
2024-05-09T18:08:13.268Z,100.00
2024-05-09T18:10:42.150Z,100.00
2024-05-09T18:13:12.427Z,100.00
2024-05-09T18:15:41.266Z,100.00
2024-05-09T18:18:12.612Z,100.00
2024-05-09T18:20:44.782Z,100.00
2024-05-09T18:23:17.837Z,100.00
2024-05-09T18:25:48.080Z,100.00
2024-05-09T18:28:17.222Z,100.00
2024-05-09T18:30:45.935Z,100.00
2024-05-09T18:33:20.558Z,100.00
2024-05-09T18:35:48.656Z,100.00
2024-05-09T18:38:18.337Z,100.00
2024-05-09T18:40:48.951Z,100.00
2024-05-09T18:43:18.788Z,100.00
2024-05-09T18:45:48.526Z,100.00
2024-05-09T18:48:16.657Z,100.00
2024-05-09T18:50:45.092Z,100.00
2024-05-09T18:53:13.978Z,100.00
2024-05-09T18:55:42.467Z,100.00
2024-05-09T18:58:10.677Z,100.00
2024-05-09T19:00:41.383Z,100.00
2024-05-09T19:03:13.839Z,100.00
2024-05-09T19:05:44.646Z,100.00
2024-05-09T19:08:15.031Z,100.00
2024-05-09T19:10:45.532Z,100.00
2024-05-09T19:13:14.626Z,100.00
2024-05-09T19:15:43.791Z,100.00
2024-05-09T19:18:13.815Z,100.00
2024-05-09T19:20:45.824Z,100.00
2024-05-09T19:23:13.817Z,100.00
2024-05-09T19:25:41.854Z,100.00
2024-05-09T19:28:09.982Z,100.00
2024-05-09T19:30:41.385Z,100.00
2024-05-09T19:33:12.958Z,100.00
2024-05-09T19:35:43.609Z,100.00
2024-05-09T19:38:12.758Z,100.00
2024-05-09T19:40:41.065Z,100.00
2024-05-09T19:43:09.566Z,100.00
2024-05-09T19:45:38.187Z,100.00
2024-05-09T19:48:06.951Z,100.00
2024-05-09T19:50:42.047Z,100.00
2024-05-09T19:53:14.371Z,100.00
2024-05-09T19:55:43.230Z,100.00
2024-05-09T19:58:12.243Z,100.00
2024-05-09T20:00:43.163Z,100.00
2024-05-09T20:03:14.288Z,100.00
2024-05-09T20:05:45.841Z,100.00
2024-05-09T20:08:14.703Z,100.00
2024-05-09T20:10:42.927Z,100.00
2024-05-09T20:13:11.281Z,100.00
2024-05-09T20:15:39.708Z,100.00
2024-05-09T20:18:08.081Z,100.00
2024-05-09T20:20:40.372Z,100.00
2024-05-09T20:23:12.139Z,100.00
2024-05-09T20:25:41.633Z,100.00
2024-05-09T20:28:10.252Z,100.00
2024-05-09T20:30:38.984Z,100.00
2024-05-09T20:33:08.655Z,100.00
2024-05-09T20:35:38.032Z,100.00
2024-05-09T20:38:06.204Z,100.00
2024-05-09T20:40:37.593Z,100.00
2024-05-09T20:43:09.478Z,100.00
2024-05-09T20:45:38.495Z,100.00
2024-05-09T20:48:07.960Z,100.00
2024-05-09T20:50:40.447Z,100.00
2024-05-09T20:53:13.734Z,100.00
2024-05-09T20:55:44.884Z,100.00
2024-05-09T20:58:13.794Z,100.00
2024-05-09T21:00:46.336Z,100.00
2024-05-09T21:03:16.949Z,100.00
2024-05-09T21:05:47.770Z,100.00
2024-05-09T21:08:16.484Z,100.00
2024-05-09T21:10:44.684Z,100.00
2024-05-09T21:13:13.122Z,100.00
2024-05-09T21:15:43.038Z,100.00
2024-05-09T21:18:12.041Z,100.00
2024-05-09T21:20:40.066Z,100.00
2024-05-09T21:23:08.483Z,100.00
2024-05-09T21:25:36.524Z,100.00
2024-05-09T21:28:04.797Z,100.00
2024-05-09T21:30:40.950Z,100.00
2024-05-09T21:33:13.439Z,100.00
2024-05-09T21:35:44.334Z,100.00
2024-05-09T21:38:14.647Z,100.00
2024-05-09T21:40:44.138Z,100.00
2024-05-09T21:43:12.704Z,100.00
2024-05-09T21:45:40.817Z,100.00
2024-05-09T21:48:09.185Z,100.00
2024-05-09T21:50:40.906Z,100.00
2024-05-09T21:53:12.400Z,100.00
2024-05-09T21:55:42.388Z,100.00
2024-05-09T21:58:13.342Z,100.00
2024-05-09T22:00:45.522Z,100.00
2024-05-09T22:03:13.771Z,100.00
2024-05-09T22:05:44.292Z,100.00
2024-05-09T22:08:12.814Z,100.00
2024-05-09T22:10:41.168Z,100.00
2024-05-09T22:13:09.286Z,100.00
2024-05-09T22:15:39.761Z,100.00
2024-05-09T22:18:10.385Z,100.00
2024-05-09T22:20:45.112Z,100.00
2024-05-09T22:23:15.109Z,100.00
2024-05-09T22:25:43.159Z,100.00
2024-05-09T22:28:13.531Z,100.00
2024-05-09T22:30:42.846Z,100.00
2024-05-09T22:33:12.050Z,100.00
2024-05-09T22:35:41.112Z,100.00
2024-05-09T22:38:09.720Z,100.00
2024-05-09T22:40:46.045Z,100.00
2024-05-09T22:43:19.362Z,100.00
2024-05-09T22:45:47.716Z,100.00
2024-05-09T22:48:15.750Z,100.00
2024-05-09T22:50:43.589Z,100.00
2024-05-09T22:53:11.499Z,100.00
2024-05-09T22:55:39.527Z,100.00
2024-05-09T22:58:07.492Z,100.00
2024-05-09T23:00:35.740Z,100.00
2024-05-09T23:03:03.875Z,100.00
2024-05-09T23:05:32.484Z,100.00
2024-05-09T23:08:01.738Z,100.00
2024-05-09T23:10:35.674Z,100.00
2024-05-09T23:13:07.460Z,100.00
2024-05-09T23:15:37.366Z,100.00
2024-05-09T23:18:06.152Z,100.00
2024-05-09T23:20:38.425Z,100.00
2024-05-09T23:23:10.568Z,100.00
2024-05-09T23:25:43.345Z,100.00
2024-05-09T23:28:11.782Z,100.00
2024-05-09T23:30:41.212Z,100.00
2024-05-09T23:33:12.906Z,100.00
2024-05-09T23:35:43.171Z,100.00
2024-05-09T23:38:12.179Z,100.00
2024-05-09T23:40:41.743Z,100.00
2024-05-09T23:43:11.759Z,100.00
2024-05-09T23:45:41.058Z,100.00
2024-05-09T23:48:09.845Z,100.00
2024-05-09T23:50:39.543Z,100.00
2024-05-09T23:53:10.015Z,100.00
2024-05-09T23:55:39.001Z,100.00
2024-05-09T23:58:08.300Z,100.00
